createdAt,value
2022-11-23T00:02:56.474Z,50.65
2022-11-23T00:06:05.526Z,51.84
2022-11-23T00:09:14.580Z,50.84
2022-11-23T00:12:20.536Z,50.55
2022-11-23T00:15:27.277Z,51.78
2022-11-23T00:18:35.877Z,54.16
2022-11-23T00:21:42.847Z,53.27
2022-11-23T00:24:48.781Z,53.40
2022-11-23T00:27:55.540Z,52.96
2022-11-23T00:31:02.117Z,52.73
2022-11-23T00:34:11.446Z,53.49
2022-11-23T00:37:19.409Z,54.83
2022-11-23T00:40:26.165Z,54.80
2022-11-23T00:43:33.154Z,54.62
2022-11-23T00:46:39.873Z,53.42
2022-11-23T00:49:48.402Z,54.18
2022-11-23T00:52:57.664Z,55.23
2022-11-23T00:56:03.868Z,54.27
2022-11-23T00:59:10.721Z,57.49
2022-11-23T01:02:17.473Z,55.70
2022-11-23T01:05:26.772Z,56.03
2022-11-23T01:08:32.698Z,60.86
2022-11-23T01:11:39.394Z,65.53
2022-11-23T01:14:45.375Z,61.18
2022-11-23T01:17:52.099Z,60.63
2022-11-23T01:21:03.741Z,60.77
2022-11-23T01:24:16.062Z,50.90
2022-11-23T01:27:22.130Z,51.78
2022-11-23T01:30:30.678Z,50.26
2022-11-23T01:33:37.378Z,49.78
2022-11-23T01:36:47.679Z,50.67
2022-11-23T01:39:53.695Z,50.84
2022-11-23T01:43:04.010Z,51.86
2022-11-23T01:46:12.213Z,52.26
2022-11-23T01:49:19.712Z,51.52
2022-11-23T01:52:30.224Z,52.15
2022-11-23T01:55:39.822Z,51.67
2022-11-23T01:58:54.967Z,52.05
2022-11-23T02:02:02.214Z,52.93
2022-11-23T02:05:10.826Z,53.14
2022-11-23T02:08:23.051Z,53.78
2022-11-23T02:11:29.116Z,53.05
2022-11-23T02:14:36.401Z,53.21
2022-11-23T02:17:42.543Z,55.21
2022-11-23T02:20:50.188Z,55.29
2022-11-23T02:24:12.943Z,54.24
2022-11-23T02:27:24.559Z,53.73
2022-11-23T02:30:35.006Z,53.17
2022-11-23T02:33:42.074Z,54.64
2022-11-23T02:36:52.177Z,54.87
2022-11-23T02:40:07.630Z,53.91
2022-11-23T02:46:37.892Z,54.52
2022-11-23T02:49:45.958Z,54.89
2022-11-23T02:52:52.634Z,53.99
2022-11-23T02:55:58.485Z,55.62
2022-11-23T02:59:08.166Z,55.44
2022-11-23T03:02:14.369Z,54.46
2022-11-23T03:05:21.467Z,53.91
2022-11-23T03:08:30.898Z,53.84
2022-11-23T03:11:39.602Z,53.76
2022-11-23T03:14:48.204Z,53.07
2022-11-23T03:17:57.076Z,53.83
2022-11-23T03:21:07.146Z,53.59
2022-11-23T03:24:16.500Z,54.30
2022-11-23T03:27:24.322Z,52.32
2022-11-23T03:30:33.977Z,51.14
2022-11-23T03:33:41.886Z,50.24
2022-11-23T03:36:49.131Z,51.35
2022-11-23T03:39:55.209Z,51.92
2022-11-23T03:43:01.988Z,53.02
2022-11-23T03:46:10.734Z,53.81
2022-11-23T03:49:17.590Z,55.09
2022-11-23T03:52:24.107Z,56.36
2022-11-23T03:55:31.166Z,55.05
2022-11-23T03:58:37.882Z,56.61
2022-11-23T04:01:50.814Z,55.86
2022-11-23T04:05:01.506Z,54.86
2022-11-23T04:08:28.550Z,51.22
2022-11-23T04:11:35.845Z,50.98
2022-11-23T04:14:42.960Z,55.50
2022-11-23T04:17:51.741Z,54.32
2022-11-23T04:20:58.747Z,55.15
2022-11-23T04:24:04.965Z,55.19
2022-11-23T04:27:14.536Z,53.51
2022-11-23T04:30:22.278Z,54.61
2022-11-23T04:33:32.020Z,55.25
2022-11-23T04:36:39.032Z,55.00
2022-11-23T04:39:48.234Z,52.53
2022-11-23T04:43:02.109Z,51.12
2022-11-23T04:46:13.757Z,50.93
2022-11-23T04:49:23.149Z,51.05
2022-11-23T04:52:30.180Z,51.47
2022-11-23T04:55:37.117Z,52.45
2022-11-23T04:58:45.011Z,52.74
2022-11-23T05:01:52.422Z,53.67
2022-11-23T05:05:20.962Z,54.24
2022-11-23T05:08:26.954Z,52.63
2022-11-23T05:11:42.163Z,49.83
2022-11-23T05:14:49.531Z,48.23
2022-11-23T05:18:06.574Z,46.75
2022-11-23T05:21:16.987Z,46.42
2022-11-23T05:24:23.979Z,45.64
2022-11-23T05:27:46.005Z,46.19
2022-11-23T05:30:54.093Z,44.95
2022-11-23T05:34:00.135Z,45.45
2022-11-23T05:37:19.995Z,45.63
2022-11-23T05:40:48.128Z,48.33
2022-11-23T05:43:55.600Z,48.83
2022-11-23T05:47:05.786Z,51.75
2022-11-23T05:50:14.377Z,52.29
2022-11-23T05:53:28.284Z,53.20
2022-11-23T05:56:42.351Z,53.77
2022-11-23T06:00:02.157Z,53.84
2022-11-23T06:03:19.329Z,53.99
2022-11-23T06:06:25.775Z,55.29
2022-11-23T06:09:36.422Z,56.67
2022-11-23T06:12:46.780Z,58.53
2022-11-23T06:15:57.320Z,65.20
2022-11-23T06:19:10.780Z,68.05
2022-11-23T06:22:22.559Z,64.66
2022-11-23T06:25:38.953Z,62.96
2022-11-23T06:29:04.332Z,62.66
2022-11-23T06:32:10.342Z,59.94
2022-11-23T06:35:17.877Z,60.69
2022-11-23T06:38:27.154Z,62.75
2022-11-23T06:41:51.939Z,66.26
2022-11-23T06:44:57.963Z,57.39
2022-11-23T06:48:04.898Z,55.47
2022-11-23T06:51:14.306Z,49.26
2022-11-23T06:54:24.607Z,47.54
2022-11-23T06:57:36.031Z,46.94
2022-11-23T07:00:43.382Z,46.76
2022-11-23T07:03:50.365Z,49.43
2022-11-23T07:07:06.566Z,48.46
2022-11-23T07:10:21.093Z,51.68
2022-11-23T07:13:37.807Z,53.81
2022-11-23T07:16:43.946Z,57.79
2022-11-23T07:20:04.880Z,55.66
2022-11-23T07:23:25.955Z,51.90
2022-11-23T07:26:48.974Z,53.70
2022-11-23T07:30:14.698Z,60.96
2022-11-23T07:33:35.587Z,70.37
2022-11-23T07:37:01.840Z,70.49
2022-11-23T07:40:25.107Z,60.00
2022-11-23T07:43:45.930Z,56.08
2022-11-23T07:47:10.380Z,57.34
2022-11-23T07:50:32.492Z,64.82
2022-11-23T07:53:39.597Z,76.94
2022-11-23T07:56:45.547Z,68.98
2022-11-23T07:59:52.263Z,62.64
2022-11-23T08:06:28.337Z,59.09
2022-11-23T08:09:34.344Z,47.71
2022-11-23T08:12:41.173Z,45.78
2022-11-23T08:15:53.277Z,52.41
2022-11-23T08:19:03.597Z,52.81
2022-11-23T08:22:12.370Z,58.42
2022-11-23T08:25:22.399Z,57.97
2022-11-23T08:28:28.474Z,59.15
2022-11-23T08:31:35.322Z,54.88
2022-11-23T08:34:46.903Z,49.77
2022-11-23T08:37:53.824Z,50.16
2022-11-23T08:41:02.520Z,46.24
2022-11-23T08:44:12.431Z,45.49
2022-11-23T08:47:19.837Z,44.16
2022-11-23T08:50:29.485Z,45.10
2022-11-23T08:53:36.778Z,45.90
2022-11-23T08:56:43.531Z,49.34
2022-11-23T08:59:49.486Z,52.99
2022-11-23T09:02:58.465Z,54.61
2022-11-23T09:06:07.644Z,54.07
2022-11-23T09:09:14.706Z,51.57
2022-11-23T09:12:20.921Z,49.81
2022-11-23T09:15:27.696Z,52.53
2022-11-23T09:18:35.678Z,51.26
2022-11-23T09:21:45.238Z,46.62
2022-11-23T09:24:51.103Z,46.36
2022-11-23T09:28:02.160Z,48.17
2022-11-23T09:31:08.995Z,49.65
2022-11-23T09:34:16.516Z,45.42
2022-11-23T09:37:26.149Z,45.51
2022-11-23T09:40:39.432Z,46.14
2022-11-23T09:44:05.065Z,45.09
2022-11-23T09:47:46.702Z,44.99
2022-11-23T09:50:59.624Z,46.74
2022-11-23T09:54:27.801Z,49.39
2022-11-23T09:57:39.229Z,47.55
2022-11-23T10:00:53.656Z,51.03
2022-11-23T10:04:01.504Z,47.64
2022-11-23T10:07:35.735Z,46.42
2022-11-23T10:10:55.808Z,48.60
2022-11-23T10:14:29.900Z,47.66
2022-11-23T10:18:03.046Z,52.86
2022-11-23T10:21:30.172Z,52.88
2022-11-23T10:24:45.527Z,55.99
2022-11-23T10:28:03.337Z,57.64
2022-11-23T10:31:19.635Z,50.36
2022-11-23T10:34:49.672Z,45.34
2022-11-23T10:38:03.759Z,53.78
2022-11-23T10:41:16.021Z,55.41
2022-11-23T10:44:37.129Z,53.32
2022-11-23T10:47:52.283Z,55.51
2022-11-23T10:51:22.686Z,50.75
2022-11-23T10:54:35.317Z,50.94
2022-11-23T10:57:48.324Z,50.56
2022-11-23T11:01:03.876Z,44.51
2022-11-23T11:04:27.779Z,44.51
2022-11-23T11:07:35.194Z,38.42
2022-11-23T11:10:50.310Z,43.28
2022-11-23T11:14:08.670Z,41.48
2022-11-23T11:17:30.819Z,36.65
2022-11-23T11:20:39.547Z,38.11
2022-11-23T11:23:49.733Z,39.79
2022-11-23T11:27:04.538Z,40.11
2022-11-23T11:30:25.597Z,42.70
2022-11-23T11:33:49.715Z,40.56
2022-11-23T11:37:09.135Z,40.10
2022-11-23T11:40:29.079Z,39.44
2022-11-23T11:43:44.015Z,32.95
2022-11-23T11:47:00.971Z,33.97
2022-11-23T11:50:31.389Z,33.04
2022-11-23T11:53:52.485Z,33.86
2022-11-23T11:57:07.926Z,32.78
2022-11-23T12:00:20.824Z,34.45
2022-11-23T12:03:44.487Z,33.18
2022-11-23T12:07:07.338Z,33.43
2022-11-23T12:10:21.888Z,34.60
2022-11-23T12:13:35.110Z,34.95
2022-11-23T12:20:45.393Z,39.65
2022-11-23T12:24:13.885Z,39.39
2022-11-23T12:27:48.259Z,37.32
2022-11-23T12:31:13.565Z,34.96
2022-11-23T12:34:51.017Z,33.83
2022-11-23T12:38:20.743Z,34.82
2022-11-23T12:41:45.276Z,42.87
2022-11-23T12:45:20.442Z,40.26
2022-11-23T12:48:49.041Z,40.06
2022-11-23T12:52:13.452Z,37.48
2022-11-23T12:55:35.995Z,36.11
2022-11-23T12:58:51.042Z,36.24
2022-11-23T13:02:06.924Z,35.32
2022-11-23T13:06:15.088Z,34.32
2022-11-23T13:09:50.539Z,35.20
2022-11-23T13:13:40.700Z,36.63
2022-11-23T13:17:24.358Z,34.32
2022-11-23T13:21:07.294Z,32.38
2022-11-23T13:24:35.278Z,32.98
2022-11-23T13:27:57.464Z,34.94
2022-11-23T13:31:25.646Z,37.39
2022-11-23T13:34:51.326Z,40.32
2022-11-23T13:38:27.387Z,40.77
2022-11-23T13:42:03.673Z,36.17
2022-11-23T13:45:28.863Z,36.76
2022-11-23T13:49:00.050Z,38.08
2022-11-23T13:52:36.574Z,41.09
2022-11-23T13:55:43.604Z,36.61
2022-11-23T13:58:57.573Z,35.76
2022-11-23T14:02:31.218Z,34.26
2022-11-23T14:06:01.963Z,35.62
2022-11-23T14:09:25.211Z,36.29
2022-11-23T14:12:46.028Z,35.35
2022-11-23T14:16:03.100Z,34.83
2022-11-23T14:19:31.435Z,33.72
2022-11-23T14:23:03.364Z,34.70
2022-11-23T14:26:36.647Z,37.77
2022-11-23T14:30:22.838Z,41.79
2022-11-23T14:33:45.859Z,51.58
2022-11-23T14:37:05.860Z,38.82
2022-11-23T14:40:33.837Z,35.17
2022-11-23T14:43:45.824Z,34.78
2022-11-23T14:47:06.647Z,40.02
2022-11-23T14:50:27.735Z,41.90
2022-11-23T14:53:46.722Z,43.09
2022-11-23T14:57:00.857Z,37.82
2022-11-23T15:00:28.950Z,40.68
2022-11-23T15:03:50.308Z,42.96
2022-11-23T15:07:07.008Z,43.42
2022-11-23T15:10:33.912Z,38.27
2022-11-23T15:13:48.626Z,41.26
2022-11-23T15:16:57.285Z,40.41
2022-11-23T15:20:07.362Z,45.41
2022-11-23T15:23:25.242Z,44.68
2022-11-23T15:26:48.037Z,44.87
2022-11-23T15:29:58.584Z,46.30
2022-11-23T15:33:14.455Z,56.73
2022-11-23T15:36:28.228Z,74.00
2022-11-23T15:39:35.723Z,58.94
2022-11-23T15:42:42.736Z,48.02
2022-11-23T15:46:09.087Z,41.91
2022-11-23T15:49:20.856Z,38.58
2022-11-23T15:52:30.259Z,39.99
2022-11-23T15:55:37.769Z,40.31
2022-11-23T15:58:54.454Z,42.91
2022-11-23T16:02:03.353Z,43.06
2022-11-23T16:05:22.510Z,39.33
2022-11-23T16:08:28.851Z,40.19
2022-11-23T16:11:39.023Z,34.56
2022-11-23T16:14:45.061Z,51.70
2022-11-23T16:17:52.177Z,59.37
2022-11-23T16:21:05.732Z,52.53
2022-11-23T16:24:26.086Z,36.14
2022-11-23T16:27:32.218Z,37.87
2022-11-23T16:30:42.853Z,41.04
2022-11-23T16:33:48.855Z,42.41
2022-11-23T16:36:59.488Z,40.22
2022-11-23T16:40:05.522Z,43.11
2022-11-23T16:43:15.038Z,46.86
2022-11-23T16:46:21.003Z,52.08
2022-11-23T16:49:27.959Z,55.29
2022-11-23T16:52:39.550Z,56.16
2022-11-23T16:55:47.276Z,67.43
2022-11-23T16:58:55.492Z,65.55
2022-11-23T17:02:02.474Z,66.41
2022-11-23T17:05:17.586Z,62.01
2022-11-23T17:08:27.047Z,66.32
2022-11-23T17:11:33.279Z,59.06
2022-11-23T17:14:42.879Z,55.47
2022-11-23T17:17:51.797Z,51.89
2022-11-23T17:20:59.235Z,41.72
2022-11-23T17:24:09.003Z,82.73
2022-11-23T17:27:21.670Z,63.75
2022-11-23T17:30:27.877Z,51.33
2022-11-23T17:33:34.784Z,45.97
2022-11-23T17:36:42.768Z,46.56
2022-11-23T17:39:53.494Z,37.95
2022-11-23T17:43:00.509Z,36.89
2022-11-23T17:46:08.016Z,35.91
2022-11-23T17:49:18.361Z,34.92
2022-11-23T17:52:27.453Z,35.22
2022-11-23T17:55:36.438Z,35.50
2022-11-23T17:58:43.293Z,37.60
2022-11-23T18:01:49.420Z,40.32
2022-11-23T18:04:56.417Z,42.08
2022-11-23T18:08:02.466Z,40.40
2022-11-23T18:11:12.500Z,41.03
2022-11-23T18:14:19.484Z,45.37
2022-11-23T18:17:26.519Z,40.33
2022-11-23T18:20:32.604Z,46.92
2022-11-23T18:23:40.200Z,52.47
2022-11-23T18:26:49.182Z,47.13
2022-11-23T18:29:56.187Z,43.94
2022-11-23T18:33:02.377Z,42.57
2022-11-23T18:36:13.059Z,41.72
2022-11-23T18:39:19.096Z,47.88
2022-11-23T18:42:28.633Z,46.38
2022-11-23T18:46:10.464Z,38.40
2022-11-23T18:49:17.353Z,37.16
2022-11-23T18:52:23.331Z,39.00
2022-11-23T18:55:30.459Z,42.89
2022-11-23T18:58:37.144Z,42.49
2022-11-23T19:01:46.566Z,42.10
2022-11-23T19:04:52.609Z,41.10
2022-11-23T19:08:05.777Z,41.88
2022-11-23T19:11:17.736Z,39.57
2022-11-23T19:14:25.266Z,38.20
2022-11-23T19:17:34.378Z,37.32
2022-11-23T19:20:42.892Z,39.50
2022-11-23T19:23:54.079Z,42.37
2022-11-23T19:27:01.006Z,40.40
2022-11-23T19:30:09.622Z,37.27
2022-11-23T19:33:20.049Z,35.27
2022-11-23T19:36:28.763Z,39.06
2022-11-23T19:39:36.398Z,42.11
2022-11-23T19:42:42.882Z,37.65
2022-11-23T19:45:57.811Z,36.63
2022-11-23T19:49:08.608Z,36.99
2022-11-23T19:52:15.715Z,41.42
2022-11-23T19:55:22.113Z,41.18
2022-11-23T19:58:31.271Z,41.25
2022-11-23T20:01:37.950Z,42.15
2022-11-23T20:04:47.574Z,41.05
2022-11-23T20:07:54.451Z,40.75
2022-11-23T20:11:01.426Z,42.11
2022-11-23T20:14:08.050Z,41.58
2022-11-23T20:17:15.948Z,40.59
2022-11-23T20:20:24.605Z,42.99
2022-11-23T20:23:32.524Z,42.03
2022-11-23T20:26:39.342Z,42.43
2022-11-23T20:29:46.962Z,43.88
2022-11-23T20:32:54.078Z,45.50
2022-11-23T20:36:17.115Z,45.44
2022-11-23T20:39:23.676Z,45.73
2022-11-23T20:42:32.043Z,46.94
2022-11-23T20:45:38.152Z,48.31
2022-11-23T20:48:48.651Z,51.93
2022-11-23T20:51:57.365Z,48.26
2022-11-23T20:55:04.398Z,42.64
2022-11-23T20:58:10.379Z,48.32
2022-11-23T21:01:19.939Z,47.02
2022-11-23T21:04:26.300Z,46.84
2022-11-23T21:07:35.882Z,47.69
2022-11-23T21:10:54.339Z,44.19
2022-11-23T21:14:16.932Z,45.73
2022-11-23T21:17:24.228Z,43.37
2022-11-23T21:20:36.281Z,40.58
2022-11-23T21:23:49.503Z,38.07
2022-11-23T21:26:59.343Z,37.96
2022-11-23T21:30:05.852Z,36.96
2022-11-23T21:33:12.716Z,36.77
2022-11-23T21:36:18.994Z,36.77
2022-11-23T21:39:30.243Z,36.75
2022-11-23T21:42:37.444Z,36.46
2022-11-23T21:45:44.887Z,34.23
2022-11-23T21:48:50.908Z,33.98
2022-11-23T21:51:57.804Z,32.68
2022-11-23T21:55:06.585Z,32.39
2022-11-23T21:58:13.453Z,38.89
2022-11-23T22:01:23.154Z,36.41
2022-11-23T22:04:30.204Z,32.18
2022-11-23T22:07:36.914Z,32.60
2022-11-23T22:10:46.401Z,32.30
2022-11-23T22:13:58.134Z,32.47
2022-11-23T22:17:06.441Z,32.69
2022-11-23T22:20:14.648Z,35.34
2022-11-23T22:23:21.478Z,34.79
2022-11-23T22:26:30.980Z,35.25
2022-11-23T22:29:37.899Z,34.80
2022-11-23T22:32:46.279Z,33.46
2022-11-23T22:35:53.413Z,36.73
2022-11-23T22:39:02.330Z,37.82
2022-11-23T22:42:11.993Z,33.36
2022-11-23T22:45:18.254Z,32.56
2022-11-23T22:48:25.075Z,36.07
2022-11-23T22:51:33.065Z,36.18
2022-11-23T22:54:40.004Z,36.65
2022-11-23T22:57:48.584Z,37.88
2022-11-23T23:00:56.299Z,39.58
2022-11-23T23:04:04.601Z,35.12
2022-11-23T23:07:11.509Z,35.74
2022-11-23T23:10:17.667Z,39.48
2022-11-23T23:13:27.207Z,40.24
2022-11-23T23:16:33.686Z,36.64
2022-11-23T23:19:40.656Z,37.62
2022-11-23T23:22:47.273Z,33.68
2022-11-23T23:25:57.233Z,33.30
2022-11-23T23:29:05.840Z,33.68
2022-11-23T23:32:13.745Z,34.92
2022-11-23T23:35:19.970Z,34.53
2022-11-23T23:38:30.140Z,34.12
2022-11-23T23:41:36.453Z,34.40
2022-11-23T23:44:45.862Z,33.98
2022-11-23T23:47:51.780Z,34.90
2022-11-23T23:50:59.125Z,35.69
2022-11-23T23:54:05.132Z,34.18
2022-11-23T23:57:12.706Z,35.21
